Mc Farland, Kansas
Current Conditions -  °F | °C
As of 11:52 PM on Tuesday 21 Oct 2014 (Local Time) from KMHK Reporting Station
Clear Clear  
Wind Chill: 62°   Ceiling: Unl
Heat Index: 62°   Visibility: 10mi
Dew Point: 54°   Wind: 0mph
Humidity: 75%   Direction: NA
Pressure: 30.05"   Gusts: NA
Location:  39.0167°N, 96.2886°W
Report Text: KMHK 220452Z AUTO 00000KT 10SM CLR 17/12 A3005 RMK AO2 SLP169 T01670122 TSNO
Loading
Personal Weather Stations






























Interactive Weather Map
Tropical Storm Tracking
New forecast layout! Learn more

10-Day Weather Forecast

Advertisements
Track Severe Weather on mobile